Hatfield, Minnesota
Current Conditions -  °F | °C
As of 12:14 PM on Thursday 27 Nov 2014 (Local Time) from KPQN Reporting Station
Clear Clear  
Wind Chill: -6°   Ceiling: Unl
Heat Index:   Visibility: 10mi
Dew Point: -4°   Wind: 8mph
Humidity: 61%   Direction: 180°S
Pressure: 30.38"   Gusts: NA
Location:  44.066°N, 96.3302°W
Report Text: KPQN 271814Z AUTO 18007KT 10SM CLR M14/M20 A3038 RMK AO2
Loading
Personal Weather Stations






























Interactive Weather Map New forecast layout! Learn more

10-Day Weather Forecast

Advertisements
Track Severe Weather on mobile